createdAt,value
2022-10-26T00:00:08.645Z,90.50
2022-10-26T00:00:46.622Z,90.40
2022-10-26T00:01:18.502Z,90.50
2022-10-26T00:01:50.380Z,90.50
2022-10-26T00:02:22.285Z,90.40
2022-10-26T00:02:55.274Z,90.50
2022-10-26T00:03:27.038Z,90.50
2022-10-26T00:03:58.938Z,90.20
2022-10-26T00:04:30.679Z,90.20
2022-10-26T00:05:02.423Z,90.70
2022-10-26T00:05:34.814Z,90.40
2022-10-26T00:06:15.396Z,90.70
2022-10-26T00:06:47.141Z,90.40
2022-10-26T00:07:18.898Z,90.50
2022-10-26T00:07:51.210Z,90.50
2022-10-26T00:08:23.009Z,90.50
2022-10-26T00:08:56.954Z,90.50
2022-10-26T00:09:28.692Z,90.40
2022-10-26T00:10:01.063Z,90.90
2022-10-26T00:10:35.834Z,90.60
2022-10-26T00:11:08.279Z,90.50
2022-10-26T00:11:40.000Z,90.50
2022-10-26T00:12:11.740Z,90.50
2022-10-26T00:12:43.723Z,90.50
2022-10-26T00:13:15.507Z,90.30
2022-10-26T00:13:48.305Z,90.50
2022-10-26T00:14:20.162Z,90.50
2022-10-26T00:14:51.978Z,90.70
2022-10-26T00:15:23.759Z,90.60
2022-10-26T00:15:56.042Z,90.50
2022-10-26T00:16:28.182Z,90.60
2022-10-26T00:17:00.036Z,90.50
2022-10-26T00:17:31.872Z,90.50
2022-10-26T00:18:04.134Z,90.30
2022-10-26T00:18:35.904Z,90.60
2022-10-26T00:19:07.643Z,90.50
2022-10-26T00:19:39.486Z,90.30
2022-10-26T00:20:11.846Z,90.50
2022-10-26T00:20:43.590Z,90.30
2022-10-26T00:21:15.816Z,90.50
2022-10-26T00:21:47.598Z,90.50
2022-10-26T00:22:19.406Z,90.50
2022-10-26T00:22:51.169Z,90.50
2022-10-26T00:23:22.925Z,90.50
2022-10-26T00:23:54.662Z,90.50
2022-10-26T00:24:26.492Z,90.50
2022-10-26T00:24:58.287Z,90.50
2022-10-26T00:25:30.029Z,90.30
2022-10-26T00:26:01.845Z,90.20
2022-10-26T00:26:33.573Z,90.50
2022-10-26T00:27:05.526Z,90.50
2022-10-26T00:27:37.397Z,90.30
2022-10-26T00:28:09.187Z,90.30
2022-10-26T00:28:41.361Z,90.30
2022-10-26T00:29:13.270Z,90.60
2022-10-26T00:29:45.059Z,90.30
2022-10-26T00:30:16.850Z,90.60
2022-10-26T00:30:48.605Z,90.60
2022-10-26T00:31:20.865Z,90.60
2022-10-26T00:31:52.610Z,90.50
2022-10-26T00:32:24.350Z,90.60
2022-10-26T00:32:56.118Z,90.50
2022-10-26T00:33:27.961Z,90.30
2022-10-26T00:33:59.720Z,90.70
2022-10-26T00:34:31.846Z,90.50
2022-10-26T00:35:11.816Z,90.50
2022-10-26T00:35:54.659Z,90.50
2022-10-26T00:36:26.978Z,90.50
2022-10-26T00:36:58.936Z,90.50
2022-10-26T00:37:30.637Z,90.50
2022-10-26T00:38:02.375Z,90.50
2022-10-26T00:38:34.108Z,90.70
2022-10-26T00:39:05.880Z,90.60
2022-10-26T00:39:37.623Z,90.60
2022-10-26T00:40:09.831Z,90.60
2022-10-26T00:40:41.970Z,90.30
2022-10-26T00:41:16.098Z,90.50
2022-10-26T00:41:47.808Z,90.70
2022-10-26T00:42:21.673Z,90.50
2022-10-26T00:43:25.590Z,90.30
2022-10-26T00:43:57.939Z,90.60
2022-10-26T00:44:48.168Z,90.60
2022-10-26T00:45:30.524Z,90.60
2022-10-26T00:46:05.665Z,90.60
2022-10-26T00:46:39.059Z,90.70
2022-10-26T00:47:14.496Z,90.70
2022-10-26T00:47:52.353Z,90.40
2022-10-26T00:48:28.714Z,90.60
2022-10-26T00:49:15.239Z,90.80
2022-10-26T00:49:49.746Z,90.60
2022-10-26T00:50:36.264Z,90.70
2022-10-26T00:51:18.506Z,90.50
2022-10-26T00:51:53.481Z,90.70
2022-10-26T00:52:25.612Z,90.70
2022-10-26T00:53:00.099Z,90.80
2022-10-26T00:53:33.446Z,90.60
2022-10-26T00:54:10.772Z,90.40
2022-10-26T00:54:44.552Z,90.60
2022-10-26T00:55:21.418Z,90.60
2022-10-26T00:55:54.987Z,90.80
2022-10-26T00:56:28.370Z,90.60
2022-10-26T00:57:00.572Z,90.60
2022-10-26T00:57:32.558Z,90.40
2022-10-26T00:58:08.504Z,90.40
2022-10-26T00:58:41.031Z,90.60
2022-10-26T00:59:15.044Z,90.70
2022-10-26T00:59:48.934Z,90.60
2022-10-26T01:00:21.733Z,90.60
2022-10-26T01:00:53.663Z,90.70
2022-10-26T01:01:25.537Z,90.40
2022-10-26T01:01:57.614Z,90.70
2022-10-26T01:02:29.394Z,90.60
2022-10-26T01:03:06.154Z,90.40
2022-10-26T01:03:39.255Z,90.60
2022-10-26T01:04:13.617Z,90.60
2022-10-26T01:04:47.153Z,90.50
2022-10-26T01:05:19.642Z,90.70
2022-10-26T01:05:56.745Z,90.60
2022-10-26T01:06:32.170Z,90.60
2022-10-26T01:07:05.933Z,90.60
2022-10-26T01:07:37.833Z,90.60
2022-10-26T01:08:10.112Z,90.80
2022-10-26T01:08:43.787Z,90.70
2022-10-26T01:09:16.928Z,90.50
2022-10-26T01:09:49.238Z,90.70
2022-10-26T01:10:21.750Z,90.60
2022-10-26T01:10:54.473Z,90.70
2022-10-26T01:11:26.236Z,90.70
2022-10-26T01:11:58.026Z,90.70
2022-10-26T01:12:29.838Z,90.50
2022-10-26T01:13:02.971Z,90.70
2022-10-26T01:13:36.391Z,89.90
2022-10-26T01:14:11.514Z,90.50
2022-10-26T01:14:44.143Z,90.80
2022-10-26T01:15:16.469Z,90.50
2022-10-26T01:16:25.317Z,90.80
2022-10-26T01:17:18.566Z,90.70
2022-10-26T01:17:58.074Z,90.80
2022-10-26T01:18:52.855Z,90.80
2022-10-26T01:19:36.727Z,90.90
2022-10-26T01:20:44.728Z,90.80
2022-10-26T01:21:46.764Z,90.90
2022-10-26T01:22:37.518Z,90.80
2022-10-26T01:23:26.184Z,90.80
2022-10-26T01:24:09.856Z,90.90
2022-10-26T01:25:04.009Z,90.80
2022-10-26T01:26:04.494Z,90.80
2022-10-26T01:27:15.242Z,90.80
2022-10-26T01:27:51.176Z,90.80
2022-10-26T01:28:55.044Z,90.80
2022-10-26T01:30:08.562Z,90.90
2022-10-26T01:30:45.735Z,90.90
2022-10-26T01:31:27.143Z,90.90
2022-10-26T01:32:11.824Z,90.70
2022-10-26T01:32:51.367Z,90.80
2022-10-26T01:33:44.221Z,90.90
2022-10-26T01:34:28.502Z,90.90
2022-10-26T01:35:12.590Z,90.90
2022-10-26T01:35:52.487Z,90.90
2022-10-26T01:36:29.985Z,90.90
2022-10-26T01:37:26.319Z,90.90
2022-10-26T01:38:14.515Z,90.90
2022-10-26T01:39:09.969Z,90.90
2022-10-26T01:39:44.052Z,89.90
2022-10-26T01:40:19.766Z,91.00
2022-10-26T01:41:14.128Z,91.10
2022-10-26T01:41:51.383Z,90.30
2022-10-26T01:42:25.983Z,90.70
2022-10-26T01:43:03.092Z,90.90
2022-10-26T01:43:40.926Z,90.90
2022-10-26T01:44:45.362Z,90.90
2022-10-26T01:45:18.651Z,90.90
2022-10-26T01:45:52.496Z,91.00
2022-10-26T01:46:27.175Z,90.90
2022-10-26T01:47:01.684Z,91.00
2022-10-26T01:47:36.466Z,90.50
2022-10-26T01:48:12.424Z,90.90
2022-10-26T01:48:45.418Z,91.10
2022-10-26T01:49:22.570Z,90.90
2022-10-26T01:49:58.022Z,91.00
2022-10-26T01:50:32.825Z,90.90
2022-10-26T01:51:07.758Z,90.90
2022-10-26T01:51:42.983Z,91.00
2022-10-26T01:52:14.966Z,90.90
2022-10-26T01:52:50.624Z,91.00
2022-10-26T01:53:22.474Z,90.90
2022-10-26T01:53:54.300Z,90.90
2022-10-26T01:54:26.045Z,90.90
2022-10-26T01:55:34.550Z,90.70
2022-10-26T01:56:19.179Z,90.90
2022-10-26T01:57:04.259Z,91.30
2022-10-26T01:57:38.270Z,90.90
2022-10-26T01:58:37.479Z,91.00
2022-10-26T01:59:34.838Z,90.90
2022-10-26T02:00:13.686Z,90.90
2022-10-26T02:01:05.795Z,90.90
2022-10-26T02:01:51.367Z,90.90
2022-10-26T02:02:45.193Z,91.00
2022-10-26T02:03:44.323Z,90.90
2022-10-26T02:04:43.241Z,90.90
2022-10-26T02:05:46.218Z,90.90
2022-10-26T02:06:36.911Z,90.90
2022-10-26T02:07:39.274Z,90.90
2022-10-26T02:08:13.949Z,91.20
2022-10-26T02:09:03.989Z,91.20
2022-10-26T02:10:05.345Z,91.10
2022-10-26T02:10:46.402Z,90.90
2022-10-26T02:11:32.660Z,90.80
2022-10-26T02:12:21.954Z,90.90
2022-10-26T02:12:53.646Z,90.90
2022-10-26T02:13:40.173Z,90.70
2022-10-26T02:14:36.229Z,90.60
2022-10-26T02:15:37.644Z,90.90
2022-10-26T02:16:40.073Z,90.90
2022-10-26T02:17:33.882Z,90.90
2022-10-26T02:18:34.517Z,90.90
2022-10-26T02:19:15.684Z,90.90
2022-10-26T02:19:57.106Z,90.90
2022-10-26T02:20:34.512Z,90.80
2022-10-26T02:21:12.865Z,90.80
2022-10-26T02:21:52.301Z,91.20
2022-10-26T02:22:36.731Z,90.80
2022-10-26T02:23:12.218Z,90.80
2022-10-26T02:23:47.958Z,90.80
2022-10-26T02:24:23.112Z,90.80
2022-10-26T02:24:58.096Z,90.80
2022-10-26T02:25:35.195Z,90.80
2022-10-26T02:26:11.688Z,90.60
2022-10-26T02:26:48.097Z,90.80
2022-10-26T02:27:25.777Z,90.80
2022-10-26T02:28:05.181Z,90.80
2022-10-26T02:28:42.091Z,91.00
2022-10-26T02:29:19.307Z,90.80
2022-10-26T02:29:53.890Z,90.80
2022-10-26T02:30:26.167Z,91.10
2022-10-26T02:31:02.562Z,90.80
2022-10-26T02:31:37.823Z,90.90
2022-10-26T02:32:10.898Z,90.80
2022-10-26T02:32:48.347Z,90.90
2022-10-26T02:33:24.030Z,90.80
2022-10-26T02:33:59.855Z,90.80
2022-10-26T02:34:34.198Z,90.80
2022-10-26T02:35:06.590Z,90.80
2022-10-26T02:35:41.784Z,90.80
2022-10-26T02:36:23.512Z,90.70
2022-10-26T02:37:00.804Z,90.70
2022-10-26T02:37:35.441Z,90.80
2022-10-26T02:38:11.493Z,90.80
2022-10-26T02:38:45.163Z,90.70
2022-10-26T02:39:19.326Z,90.80
2022-10-26T02:39:55.413Z,90.70
2022-10-26T02:40:29.174Z,90.70
2022-10-26T02:41:02.796Z,90.70
2022-10-26T02:41:36.862Z,90.80
2022-10-26T02:42:10.419Z,90.80
2022-10-26T02:42:45.602Z,90.50
2022-10-26T02:43:22.197Z,90.80
2022-10-26T02:44:06.070Z,90.70
2022-10-26T02:44:46.274Z,90.80
2022-10-26T02:45:32.334Z,91.00
2022-10-26T02:46:10.458Z,90.80
2022-10-26T02:46:43.832Z,90.90
2022-10-26T02:47:17.262Z,90.80
2022-10-26T02:47:50.082Z,90.80
2022-10-26T02:48:23.594Z,90.90
2022-10-26T02:48:57.528Z,90.90
2022-10-26T02:49:30.117Z,90.80
2022-10-26T02:58:44.060Z,90.90
2022-10-26T02:59:19.342Z,90.90
2022-10-26T02:59:52.320Z,91.00
2022-10-26T03:00:24.430Z,90.90
2022-10-26T03:00:57.896Z,90.90
2022-10-26T03:01:31.286Z,90.70
2022-10-26T03:02:05.090Z,90.90
2022-10-26T03:02:36.971Z,91.00
2022-10-26T03:03:08.952Z,90.70
2022-10-26T03:03:40.804Z,90.70
2022-10-26T03:04:12.667Z,90.90
2022-10-26T03:04:44.802Z,91.00
2022-10-26T03:05:25.151Z,91.00
2022-10-26T03:05:56.921Z,91.70
2022-10-26T03:06:28.718Z,90.90
2022-10-26T03:07:01.100Z,91.00
2022-10-26T03:07:32.822Z,90.90
2022-10-26T03:08:04.836Z,91.00
2022-10-26T03:08:36.590Z,91.00
2022-10-26T03:09:08.389Z,90.90
2022-10-26T03:09:40.132Z,91.10
2022-10-26T03:10:11.967Z,91.00
2022-10-26T03:10:45.944Z,90.90
2022-10-26T03:11:18.160Z,90.90
2022-10-26T03:11:49.920Z,90.90
2022-10-26T03:12:21.629Z,90.90
2022-10-26T03:12:53.394Z,90.90
2022-10-26T03:13:25.182Z,90.90
2022-10-26T03:13:56.950Z,91.10
2022-10-26T03:14:28.711Z,90.90
2022-10-26T03:15:00.470Z,90.90
2022-10-26T03:15:32.203Z,91.00
2022-10-26T03:16:03.960Z,91.00
2022-10-26T03:16:35.694Z,90.90
2022-10-26T03:17:07.896Z,90.90
2022-10-26T03:17:39.826Z,91.00
2022-10-26T03:18:11.592Z,90.70
2022-10-26T03:18:43.395Z,91.00
2022-10-26T03:19:15.218Z,90.70
2022-10-26T03:19:46.945Z,91.00
2022-10-26T03:20:19.088Z,90.90
2022-10-26T03:20:50.831Z,90.90
2022-10-26T03:21:22.653Z,90.70
2022-10-26T03:21:54.397Z,90.60
2022-10-26T03:22:26.152Z,90.90
2022-10-26T03:22:58.165Z,90.70
2022-10-26T03:23:29.914Z,90.90
2022-10-26T03:24:02.008Z,90.90
2022-10-26T03:24:33.843Z,90.90
2022-10-26T03:25:06.286Z,90.90
2022-10-26T03:25:38.065Z,90.90
2022-10-26T03:26:09.798Z,90.90
2022-10-26T03:26:41.517Z,90.90
2022-10-26T03:27:13.891Z,90.90
2022-10-26T03:27:45.651Z,90.90
2022-10-26T03:28:17.492Z,90.90
2022-10-26T03:28:49.266Z,90.90
2022-10-26T03:29:20.997Z,90.90
2022-10-26T03:29:53.870Z,90.70
2022-10-26T03:30:26.332Z,90.90
2022-10-26T03:30:58.082Z,90.80
2022-10-26T03:31:29.832Z,91.80
2022-10-26T03:32:01.587Z,90.90
2022-10-26T03:32:33.404Z,90.90
2022-10-26T03:33:05.170Z,91.00
2022-10-26T03:34:09.679Z,90.90
2022-10-26T03:34:41.418Z,90.80
2022-10-26T03:35:13.188Z,90.90
2022-10-26T03:35:44.963Z,90.90
2022-10-26T03:36:16.738Z,90.90
2022-10-26T03:36:48.895Z,90.90
2022-10-26T03:37:20.634Z,90.90
2022-10-26T03:37:52.536Z,90.80
2022-10-26T03:38:24.502Z,90.60
2022-10-26T03:38:56.267Z,90.80
2022-10-26T03:39:27.998Z,90.80
2022-10-26T03:39:59.716Z,90.60
2022-10-26T03:40:31.480Z,90.60
2022-10-26T03:41:03.241Z,90.50
2022-10-26T03:41:35.033Z,90.80
2022-10-26T03:42:06.774Z,91.10
2022-10-26T03:42:39.445Z,91.50
2022-10-26T03:43:11.194Z,90.80
2022-10-26T03:43:42.951Z,90.80
2022-10-26T03:44:14.764Z,90.50
2022-10-26T03:44:47.200Z,90.90
2022-10-26T03:45:18.941Z,90.50
2022-10-26T03:45:50.707Z,90.80
2022-10-26T03:46:22.463Z,90.50
2022-10-26T03:46:54.174Z,90.80
2022-10-26T03:47:25.929Z,90.80
2022-10-26T03:47:57.651Z,90.50
2022-10-26T03:48:29.415Z,90.50
2022-10-26T03:49:01.254Z,90.50
2022-10-26T03:49:33.041Z,90.80
2022-10-26T03:50:37.937Z,90.70
2022-10-26T03:51:09.898Z,91.00
2022-10-26T03:51:41.608Z,90.80
2022-10-26T03:52:13.346Z,90.70
2022-10-26T03:52:47.707Z,91.00
2022-10-26T03:53:19.642Z,90.70
2022-10-26T03:53:51.443Z,90.70
2022-10-26T03:54:23.206Z,90.50
2022-10-26T03:54:54.929Z,90.70
2022-10-26T03:55:26.652Z,90.80
2022-10-26T03:55:58.463Z,90.80
2022-10-26T03:56:30.269Z,90.40
2022-10-26T03:57:02.003Z,90.70
2022-10-26T03:57:33.841Z,90.70
2022-10-26T03:58:05.594Z,90.70
2022-10-26T03:58:37.405Z,90.40
2022-10-26T03:59:09.104Z,90.90
2022-10-26T03:59:41.310Z,90.90
2022-10-26T04:00:15.802Z,90.40
2022-10-26T04:00:47.992Z,90.60
2022-10-26T04:01:19.827Z,90.40
2022-10-26T04:01:54.122Z,90.80
2022-10-26T04:02:28.662Z,90.70
2022-10-26T04:03:00.467Z,90.40
2022-10-26T04:03:32.259Z,90.90
2022-10-26T04:04:04.087Z,90.70
2022-10-26T04:04:35.917Z,90.70
2022-10-26T04:05:08.444Z,90.60
2022-10-26T04:05:40.165Z,90.60
2022-10-26T04:06:11.983Z,90.70
2022-10-26T04:06:43.735Z,90.60
2022-10-26T04:07:15.566Z,90.70
2022-10-26T04:07:59.139Z,90.40
2022-10-26T04:08:31.022Z,90.60
2022-10-26T04:09:03.949Z,90.40
2022-10-26T04:09:35.687Z,90.70
2022-10-26T04:10:07.962Z,90.70
2022-10-26T04:10:39.713Z,90.70
2022-10-26T04:11:11.470Z,90.90
2022-10-26T04:11:43.225Z,90.70
2022-10-26T04:12:14.985Z,90.70
2022-10-26T04:12:46.791Z,90.50
2022-10-26T04:13:18.689Z,90.80
2022-10-26T04:13:50.491Z,90.70
2022-10-26T04:14:22.359Z,90.60
2022-10-26T04:14:54.337Z,90.60
2022-10-26T04:15:26.148Z,90.40
2022-10-26T04:15:58.329Z,90.40
2022-10-26T04:16:32.714Z,90.60
2022-10-26T04:17:05.335Z,90.80
2022-10-26T04:17:37.131Z,90.80
2022-10-26T04:18:09.675Z,90.80
2022-10-26T04:18:41.404Z,90.40
2022-10-26T04:19:13.163Z,90.60
2022-10-26T04:19:44.940Z,90.70
2022-10-26T04:20:16.870Z,90.60
2022-10-26T04:20:48.571Z,90.40
2022-10-26T04:21:20.390Z,90.40
2022-10-26T04:21:52.350Z,90.40
2022-10-26T04:22:24.099Z,90.60
2022-10-26T04:23:04.933Z,90.60
2022-10-26T04:23:36.716Z,90.40
2022-10-26T04:24:09.861Z,90.60
2022-10-26T04:24:41.623Z,90.70
2022-10-26T04:25:13.569Z,90.60
2022-10-26T04:25:45.451Z,90.60
2022-10-26T04:26:17.203Z,90.40
2022-10-26T04:26:48.932Z,90.60
2022-10-26T04:27:20.976Z,90.60
2022-10-26T04:27:52.808Z,90.60
2022-10-26T04:28:24.610Z,90.60
2022-10-26T04:28:56.348Z,90.60
2022-10-26T04:29:28.086Z,90.60
2022-10-26T04:29:59.902Z,90.80
2022-10-26T04:30:33.316Z,90.50
2022-10-26T04:31:05.131Z,90.50
2022-10-26T04:31:36.908Z,90.50
2022-10-26T04:32:08.667Z,90.60
2022-10-26T04:32:40.374Z,90.80
2022-10-26T04:33:12.194Z,90.60
2022-10-26T04:33:43.929Z,90.60
2022-10-26T04:34:15.688Z,90.60
2022-10-26T04:34:47.413Z,90.60
2022-10-26T04:35:19.263Z,90.60
2022-10-26T04:35:50.998Z,90.60
2022-10-26T04:36:22.756Z,90.40
2022-10-26T04:36:55.219Z,90.60
2022-10-26T04:37:26.929Z,90.60
2022-10-26T04:38:03.688Z,90.60
2022-10-26T04:38:35.410Z,90.80
2022-10-26T04:39:39.349Z,90.40
2022-10-26T04:40:11.763Z,90.40
2022-10-26T04:40:43.565Z,90.60
2022-10-26T04:41:15.387Z,90.60
2022-10-26T04:41:47.128Z,90.80
2022-10-26T04:42:18.878Z,90.60
2022-10-26T04:42:50.818Z,90.60
2022-10-26T04:43:22.754Z,90.80
2022-10-26T04:43:54.509Z,90.60
2022-10-26T04:44:26.221Z,90.60
2022-10-26T04:44:57.940Z,90.60
2022-10-26T04:45:31.152Z,90.40
2022-10-26T04:46:03.174Z,90.60
2022-10-26T04:46:34.966Z,90.70
2022-10-26T04:47:06.692Z,90.50
2022-10-26T04:47:39.201Z,90.70
2022-10-26T04:48:13.110Z,90.40
2022-10-26T04:48:44.998Z,90.60
2022-10-26T04:49:16.755Z,90.80
2022-10-26T04:49:48.499Z,90.90
2022-10-26T04:50:22.742Z,90.80
2022-10-26T04:50:59.765Z,90.80
2022-10-26T04:51:31.561Z,90.70
2022-10-26T04:52:05.002Z,90.40
2022-10-26T04:52:37.618Z,90.60
2022-10-26T04:53:10.040Z,90.60
2022-10-26T04:53:41.762Z,90.70
2022-10-26T04:54:13.518Z,90.50
2022-10-26T04:54:45.262Z,90.70
2022-10-26T04:55:17.120Z,90.50
2022-10-26T04:55:48.842Z,90.70
2022-10-26T04:56:20.655Z,90.90
2022-10-26T04:56:52.404Z,90.80
2022-10-26T04:57:24.140Z,90.80
2022-10-26T04:57:58.467Z,90.80
2022-10-26T04:58:32.913Z,90.70
2022-10-26T04:59:04.678Z,90.80
2022-10-26T04:59:36.419Z,90.80
2022-10-26T05:00:09.186Z,90.90
2022-10-26T05:00:40.923Z,90.70
2022-10-26T05:01:12.790Z,91.00
2022-10-26T05:01:44.796Z,90.60
2022-10-26T05:02:16.764Z,90.60
2022-10-26T05:02:48.627Z,90.90
2022-10-26T05:03:20.783Z,89.90
2022-10-26T05:03:53.223Z,90.60
2022-10-26T05:04:24.951Z,90.90
2022-10-26T05:04:56.712Z,90.80
2022-10-26T05:05:30.367Z,90.60
2022-10-26T05:06:02.086Z,91.00
2022-10-26T05:06:33.862Z,91.10
2022-10-26T05:07:05.603Z,91.10
2022-10-26T05:07:37.451Z,90.90
2022-10-26T05:08:09.228Z,90.70
2022-10-26T05:08:40.926Z,90.70
2022-10-26T05:09:12.707Z,90.90
2022-10-26T05:09:44.506Z,91.10
2022-10-26T05:10:16.377Z,90.70
2022-10-26T05:10:49.870Z,90.90
2022-10-26T05:11:21.639Z,91.00
2022-10-26T05:11:53.472Z,91.00
2022-10-26T05:12:25.200Z,90.70
2022-10-26T05:12:59.185Z,91.00
2022-10-26T05:13:30.980Z,91.00
2022-10-26T05:14:02.804Z,90.80
2022-10-26T05:14:34.576Z,91.00
2022-10-26T05:15:08.566Z,91.30
2022-10-26T05:15:40.515Z,91.10
2022-10-26T05:16:12.219Z,90.90
2022-10-26T05:16:44.599Z,91.20
2022-10-26T05:17:16.386Z,90.90
2022-10-26T05:17:57.319Z,91.20
2022-10-26T05:18:29.069Z,91.10
2022-10-26T05:19:00.874Z,91.20
2022-10-26T05:19:32.584Z,91.10
2022-10-26T05:20:06.115Z,91.40
2022-10-26T05:20:38.125Z,91.10
2022-10-26T05:21:09.879Z,91.20
2022-10-26T05:21:41.654Z,91.20
2022-10-26T05:22:13.391Z,91.50
2022-10-26T05:22:53.048Z,91.50
2022-10-26T05:23:25.146Z,91.20
2022-10-26T05:23:56.952Z,90.90
2022-10-26T05:24:28.669Z,91.20
2022-10-26T05:25:00.406Z,91.00
2022-10-26T05:25:35.297Z,91.40
2022-10-26T05:26:07.247Z,91.20
2022-10-26T05:26:39.065Z,91.20
2022-10-26T05:27:10.801Z,89.90
2022-10-26T05:27:42.507Z,91.50
2022-10-26T05:28:15.817Z,91.20
2022-10-26T05:28:47.675Z,91.20
2022-10-26T05:29:19.428Z,91.30
2022-10-26T05:29:51.148Z,91.30
2022-10-26T05:30:22.842Z,91.30
2022-10-26T05:30:54.591Z,91.30
2022-10-26T05:31:26.394Z,91.30
2022-10-26T05:31:58.134Z,91.10
2022-10-26T05:32:29.990Z,91.30
2022-10-26T05:33:03.283Z,91.40
2022-10-26T05:33:35.035Z,91.40
2022-10-26T05:34:06.787Z,91.40
2022-10-26T05:34:40.858Z,91.40
2022-10-26T05:35:13.435Z,91.40
2022-10-26T05:35:45.226Z,91.40
2022-10-26T05:36:20.250Z,91.20
2022-10-26T05:36:53.528Z,91.40
2022-10-26T05:37:29.007Z,91.40
2022-10-26T05:38:06.357Z,91.40
2022-10-26T05:38:38.130Z,91.40
2022-10-26T05:39:09.915Z,91.70
2022-10-26T05:39:43.315Z,91.50
2022-10-26T05:40:16.624Z,91.20
2022-10-26T05:40:49.834Z,91.50
2022-10-26T05:41:21.633Z,91.40
2022-10-26T05:41:53.413Z,91.50
2022-10-26T05:42:25.418Z,91.50
2022-10-26T05:43:04.090Z,91.60
2022-10-26T05:43:35.826Z,91.60
2022-10-26T05:44:07.558Z,91.50
2022-10-26T05:44:39.281Z,92.50
2022-10-26T05:45:12.294Z,91.60
2022-10-26T05:45:44.226Z,91.50
2022-10-26T05:46:16.224Z,91.10
2022-10-26T05:47:24.703Z,91.50
2022-10-26T05:47:58.715Z,91.80
2022-10-26T05:48:34.174Z,91.50
2022-10-26T05:49:05.893Z,91.50
2022-10-26T05:49:37.748Z,91.20
2022-10-26T05:50:11.374Z,91.50
2022-10-26T05:50:43.464Z,91.40
2022-10-26T05:51:15.919Z,91.70
2022-10-26T05:51:47.662Z,91.50
2022-10-26T05:52:19.389Z,91.50
2022-10-26T05:52:51.194Z,91.50
2022-10-26T05:53:22.954Z,91.20
2022-10-26T05:53:54.745Z,91.50
2022-10-26T05:54:26.468Z,91.40
2022-10-26T05:54:58.203Z,91.60
2022-10-26T05:55:30.886Z,91.50
2022-10-26T05:56:04.976Z,91.50
2022-10-26T05:56:40.914Z,91.50
2022-10-26T05:57:13.658Z,91.40
2022-10-26T05:57:45.907Z,91.50
2022-10-26T05:58:18.188Z,91.40
2022-10-26T05:58:50.244Z,91.40
2022-10-26T05:59:22.883Z,91.40
2022-10-26T05:59:54.851Z,91.40
2022-10-26T06:00:28.807Z,91.40
2022-10-26T06:01:21.842Z,91.40
2022-10-26T06:02:18.978Z,91.40
2022-10-26T06:03:18.528Z,91.40
2022-10-26T06:04:09.590Z,91.40
2022-10-26T06:04:48.476Z,91.20
2022-10-26T06:05:26.232Z,91.40
2022-10-26T06:06:01.590Z,91.40
2022-10-26T06:06:42.143Z,91.40
2022-10-26T06:07:16.702Z,91.40
2022-10-26T06:07:48.979Z,91.30
2022-10-26T06:08:22.785Z,91.40
2022-10-26T06:08:54.761Z,91.10
2022-10-26T06:09:27.139Z,91.30
2022-10-26T06:09:59.368Z,91.20
2022-10-26T06:10:31.550Z,91.40
2022-10-26T06:11:03.664Z,91.40
2022-10-26T06:11:35.685Z,91.50
2022-10-26T06:12:08.485Z,91.40
2022-10-26T06:12:40.474Z,91.40
2022-10-26T06:13:44.883Z,91.10
2022-10-26T06:14:16.863Z,91.40
2022-10-26T06:14:48.982Z,91.30
2022-10-26T06:15:22.196Z,91.40
2022-10-26T06:16:15.136Z,91.40
2022-10-26T06:17:05.194Z,91.50
2022-10-26T06:17:53.770Z,91.40
2022-10-26T06:18:50.336Z,91.40
2022-10-26T06:19:43.957Z,91.40
2022-10-26T06:20:41.559Z,91.50
2022-10-26T06:21:28.218Z,91.40
2022-10-26T06:22:13.946Z,91.40
2022-10-26T06:23:16.058Z,91.40
2022-10-26T06:23:56.838Z,91.40
2022-10-26T06:24:44.935Z,91.40
2022-10-26T06:25:36.032Z,91.40
2022-10-26T06:26:20.106Z,91.30
2022-10-26T06:26:56.670Z,91.20
2022-10-26T06:27:51.063Z,91.40
2022-10-26T06:28:59.941Z,91.30
2022-10-26T06:29:56.684Z,91.40
2022-10-26T06:30:28.645Z,91.40
2022-10-26T06:31:00.592Z,91.40
2022-10-26T06:31:32.332Z,91.10
2022-10-26T06:32:04.228Z,91.30
2022-10-26T06:32:36.661Z,91.60
2022-10-26T06:33:24.718Z,91.50
2022-10-26T06:34:00.897Z,91.40
2022-10-26T06:34:42.959Z,91.50
2022-10-26T06:35:33.603Z,91.40
2022-10-26T06:36:19.204Z,91.40
2022-10-26T06:36:52.192Z,91.30
2022-10-26T06:37:26.059Z,91.40
2022-10-26T06:38:04.803Z,91.40
2022-10-26T06:38:39.622Z,91.40
2022-10-26T06:39:13.842Z,91.40
2022-10-26T06:39:51.398Z,91.30
2022-10-26T06:40:26.651Z,91.20
2022-10-26T06:41:00.426Z,91.40
2022-10-26T06:41:34.056Z,91.40
2022-10-26T06:42:06.453Z,91.30
2022-10-26T06:42:39.080Z,91.40
2022-10-26T06:43:26.021Z,91.40
2022-10-26T06:43:58.434Z,91.40
2022-10-26T06:44:30.349Z,91.50
2022-10-26T06:45:02.419Z,91.40
2022-10-26T06:46:21.260Z,91.20
2022-10-26T06:47:07.398Z,91.40
2022-10-26T06:48:03.638Z,91.20
2022-10-26T06:49:06.355Z,91.40
2022-10-26T06:49:56.896Z,91.10
2022-10-26T06:50:37.167Z,91.40
2022-10-26T06:51:15.546Z,91.40
2022-10-26T06:52:15.747Z,91.60
2022-10-26T06:53:18.957Z,91.40
2022-10-26T06:53:58.460Z,91.40
2022-10-26T06:54:54.397Z,91.60
2022-10-26T06:55:27.301Z,91.40
2022-10-26T06:56:00.417Z,91.20
2022-10-26T06:56:32.923Z,91.20
2022-10-26T06:57:04.955Z,91.50
2022-10-26T06:57:39.284Z,91.40
2022-10-26T06:58:17.556Z,91.30
2022-10-26T06:58:52.378Z,91.40
2022-10-26T06:59:31.533Z,91.40
2022-10-26T07:00:23.443Z,91.40
2022-10-26T07:00:56.446Z,91.30
2022-10-26T07:01:28.213Z,91.40
2022-10-26T07:02:02.887Z,91.40
2022-10-26T07:02:37.584Z,91.30
2022-10-26T07:03:09.400Z,91.40
2022-10-26T07:03:41.193Z,91.40
2022-10-26T07:04:12.927Z,91.10
2022-10-26T07:04:45.818Z,91.50
2022-10-26T07:05:18.411Z,91.20
2022-10-26T07:05:50.274Z,91.30
2022-10-26T07:06:22.046Z,91.10
2022-10-26T07:06:55.772Z,91.40
2022-10-26T07:07:30.992Z,91.10
2022-10-26T07:08:02.956Z,91.10
2022-10-26T07:08:34.803Z,91.30
2022-10-26T07:09:06.686Z,91.50
2022-10-26T07:09:38.561Z,91.10
2022-10-26T07:10:12.137Z,91.40
2022-10-26T07:10:44.258Z,91.30
2022-10-26T07:11:16.002Z,91.60
2022-10-26T07:11:47.711Z,91.40
2022-10-26T07:12:19.460Z,91.40
2022-10-26T07:12:51.317Z,91.30
2022-10-26T07:13:23.028Z,91.40
2022-10-26T07:13:54.801Z,91.30
2022-10-26T07:14:26.506Z,91.10
2022-10-26T07:14:58.376Z,91.50
2022-10-26T07:15:30.124Z,91.40
2022-10-26T07:16:03.865Z,91.40
2022-10-26T07:16:35.951Z,91.40
2022-10-26T07:17:09.303Z,91.40
2022-10-26T07:17:45.694Z,91.40
2022-10-26T07:18:17.488Z,91.30
2022-10-26T07:18:49.328Z,91.20
2022-10-26T07:19:21.034Z,91.10
2022-10-26T07:19:53.208Z,91.30
2022-10-26T07:20:25.001Z,91.30
2022-10-26T07:20:59.107Z,91.30
2022-10-26T07:21:30.852Z,92.10
2022-10-26T07:22:03.569Z,91.30
2022-10-26T07:22:35.331Z,91.30
2022-10-26T07:23:08.565Z,91.20
2022-10-26T07:23:40.288Z,91.20
2022-10-26T07:24:11.989Z,91.20
2022-10-26T07:24:43.779Z,92.10
2022-10-26T07:25:15.634Z,91.30
2022-10-26T07:25:47.400Z,91.20
2022-10-26T07:26:19.235Z,91.10
2022-10-26T07:26:51.231Z,91.30
2022-10-26T07:27:23.942Z,91.20
2022-10-26T07:27:59.383Z,91.30
2022-10-26T07:28:31.179Z,91.20
2022-10-26T07:29:03.374Z,91.00
2022-10-26T07:29:35.412Z,91.20
2022-10-26T07:30:07.759Z,91.30
2022-10-26T07:30:40.238Z,91.00
2022-10-26T07:31:11.981Z,91.30
2022-10-26T07:31:44.043Z,91.30
2022-10-26T07:32:15.919Z,91.30
2022-10-26T07:32:47.972Z,91.20
2022-10-26T07:33:19.949Z,91.20
2022-10-26T07:33:54.259Z,91.30
2022-10-26T07:34:26.215Z,91.20
2022-10-26T07:34:57.971Z,91.20
2022-10-26T07:35:30.042Z,91.20
2022-10-26T07:36:01.915Z,91.20
2022-10-26T07:36:36.568Z,91.30
2022-10-26T07:37:08.350Z,91.30
2022-10-26T07:37:40.089Z,91.50
2022-10-26T07:38:13.447Z,91.10
2022-10-26T07:38:45.186Z,91.50
2022-10-26T07:39:17.014Z,91.40
2022-10-26T07:39:48.819Z,91.30
2022-10-26T07:40:57.288Z,91.10
2022-10-26T07:41:29.132Z,91.30
2022-10-26T07:42:00.872Z,91.50
2022-10-26T07:42:32.652Z,91.40
2022-10-26T07:43:05.112Z,91.40
2022-10-26T07:43:36.853Z,91.30
2022-10-26T07:44:08.690Z,91.20
2022-10-26T07:44:40.455Z,91.70
2022-10-26T07:45:12.202Z,91.40
2022-10-26T07:46:49.725Z,91.40
2022-10-26T07:47:21.909Z,91.40
2022-10-26T07:47:53.698Z,91.50
2022-10-26T07:48:25.453Z,91.40
2022-10-26T07:48:57.189Z,91.40